KFUL/FUL METAR and TAF weather

Enter ICAO airport designator
Station Type Date Time Source
KFUL METAR 2022/08/16 17:53 UTC NOAA

KFUL 161753Z VRB03KT 10SM CLR 29/16 A2981 RMK AO2 SLP093 T02940156 10294 20194 53002


Station Type Date Time Source
KFUL Decoded METAR 2022/08/16 17:53 UTC NOAA

FULLERTON MUNICIPAL AIRPORT , CA, United States (KFUL) 33-52N 117-59W 35M
Aug 16, 2022 - 01:53 PM EDT / 2022.08.16 1753 UTC
Wind: Variable at 3 MPH (3 KT):0
Visibility: 10 mile(s):0
Sky conditions: clear
Temperature: 84.9 F (29.4 C)
Dew Point: 60.1 F (15.6 C)
Relative Humidity: 43%
Pressure (altimeter): 29.81 in. Hg (1009 hPa)
Pressure tendency: 0.01 inches (0.2 hPa) higher than three hours ago
ob: KFUL 161753Z VRB03KT 10SM CLR 29/16 A2981 RMK AO2 SLP093 T02940156 10294 20194 53002
cycle: 18

Station Type Date Time Source
KFUL TAF UTC NOAA

Error!

Example: see airport list